Time;durP1;ratioP1;P1;durP2;ratioP2;P2;SDS_P1;SDS_P2;PMS_P1;PMS_P2;Temp;Humidity;BMP_temperature;BMP_pressure;BME280_temperature;BME280_humidity;BME280_pressure;Samples;Min_cycle;Max_cycle;Signal;HPM_P1;HPM_P2
2024/03/20 00:02:00;;;;;;;7.10;3.00;;;;;;;;;;5007663;28;20080;-74
2024/03/20 00:04:25;;;;;;;11.63;3.67;;;;;;;;;;5016378;28;20142;-74
2024/03/20 00:06:50;;;;;;;7.57;3.42;;;;;;;;;;5016411;28;20092;-74
2024/03/20 00:09:19;;;;;;;6.07;3.55;;;;;;;;;;5020904;28;20069;-74
2024/03/20 00:11:44;;;;;;;6.45;3.70;;;;;;;;;;5017934;28;20049;-74
2024/03/20 00:14:10;;;;;;;9.65;3.28;;;;;;;;;;5026692;28;20437;-75
2024/03/20 00:16:35;;;;;;;9.40;3.60;;;;;;;;;;5028963;28;20084;-74
2024/03/20 00:19:01;;;;;;;11.48;4.00;;;;;;;;;;5007810;28;20073;-74
2024/03/20 00:21:26;;;;;;;7.97;3.20;;;;;;;;;;5027612;28;20068;-73
2024/03/20 00:23:52;;;;;;;9.30;3.65;;;;;;;;;;5026146;28;20108;-74
2024/03/20 00:26:17;;;;;;;10.25;4.22;;;;;;;;;;5013938;28;20053;-74
2024/03/20 00:28:43;;;;;;;7.85;3.97;;;;;;;;;;5011187;28;20053;-75
2024/03/20 00:31:08;;;;;;;10.45;4.40;;;;;;;;;;5026302;28;20056;-75
2024/03/20 00:33:34;;;;;;;8.38;4.32;;;;;;;;;;5015299;28;20045;-74
2024/03/20 00:35:59;;;;;;;13.82;5.28;;;;;;;;;;5013686;28;20062;-74
2024/03/20 00:38:25;;;;;;;9.20;4.43;;;;;;;;;;5030247;28;20127;-74
2024/03/20 00:40:50;;;;;;;6.38;4.28;;;;;;;;;;5029200;28;20065;-73
2024/03/20 00:43:16;;;;;;;7.35;4.20;;;;;;;;;;5024237;28;20057;-74
2024/03/20 00:45:41;;;;;;;7.88;4.28;;;;;;;;;;5003386;28;20417;-74
2024/03/20 00:48:07;;;;;;;7.88;4.15;;;;;;;;;;5026827;28;20205;-75
2024/03/20 00:50:33;;;;;;;10.43;4.97;;;;;;;;;;5008056;28;20176;-75
2024/03/20 00:52:58;;;;;;;7.25;4.40;;;;;;;;;;5019969;28;20049;-74
2024/03/20 00:55:24;;;;;;;9.63;5.07;;;;;;;;;;5021241;28;20072;-74
2024/03/20 00:57:49;;;;;;;8.48;4.82;;;;;;;;;;5009397;28;20053;-74
2024/03/20 01:00:17;;;;;;;9.57;4.88;;;;;;;;;;5005035;28;20085;-74
2024/03/20 01:02:43;;;;;;;8.60;5.00;;;;;;;;;;5025694;28;20057;-75
2024/03/20 01:05:10;;;;;;;9.60;5.10;;;;;;;;;;5027892;28;20263;-74
2024/03/20 01:07:35;;;;;;;8.70;4.78;;;;;;;;;;5032649;28;20064;-74
2024/03/20 01:10:01;;;;;;;8.05;4.50;;;;;;;;;;5016181;28;20671;-74
2024/03/20 01:12:26;;;;;;;9.93;4.72;;;;;;;;;;5020424;28;20057;-75
2024/03/20 01:14:52;;;;;;;9.00;4.53;;;;;;;;;;5025442;28;20053;-75
2024/03/20 01:17:17;;;;;;;8.45;4.72;;;;;;;;;;5003209;28;20045;-75
2024/03/20 01:19:43;;;;;;;8.65;4.40;;;;;;;;;;5020903;28;20060;-75
2024/03/20 01:22:08;;;;;;;10.68;4.88;;;;;;;;;;5024531;28;20095;-74
2024/03/20 01:24:34;;;;;;;8.48;4.63;;;;;;;;;;5023766;28;20045;-74
2024/03/20 01:27:00;;;;;;;13.23;4.85;;;;;;;;;;5033659;28;20060;-74
2024/03/20 01:29:25;;;;;;;12.43;5.18;;;;;;;;;;5020392;28;20056;-75
2024/03/20 01:31:51;;;;;;;11.32;5.00;;;;;;;;;;5024771;28;20087;-74
2024/03/20 01:34:17;;;;;;;9.57;5.20;;;;;;;;;;5017111;28;20045;-74
2024/03/20 01:36:42;;;;;;;8.82;4.88;;;;;;;;;;5021501;28;20055;-74
2024/03/20 01:39:07;;;;;;;9.20;5.13;;;;;;;;;;5013044;28;20076;-74
2024/03/20 01:41:33;;;;;;;7.78;4.50;;;;;;;;;;5020927;28;20060;-75
2024/03/20 01:43:58;;;;;;;14.00;4.72;;;;;;;;;;5013913;28;20079;-74
2024/03/20 01:46:25;;;;;;;8.98;4.68;;;;;;;;;;5012225;28;20052;-74
2024/03/20 01:48:51;;;;;;;13.18;5.63;;;;;;;;;;5022931;28;20471;-80
2024/03/20 01:51:17;;;;;;;9.55;5.25;;;;;;;;;;5004579;28;20029;-80
2024/03/20 01:53:42;;;;;;;8.60;5.13;;;;;;;;;;5014937;28;20045;-80
2024/03/20 01:56:08;;;;;;;11.70;5.20;;;;;;;;;;5012956;28;20057;-79
2024/03/20 01:58:33;;;;;;;7.82;4.68;;;;;;;;;;5014283;28;20046;-76
2024/03/20 02:00:59;;;;;;;8.27;4.40;;;;;;;;;;5009896;28;20060;-79
2024/03/20 02:03:24;;;;;;;9.13;4.90;;;;;;;;;;5034630;28;20045;-78
2024/03/20 02:05:50;;;;;;;12.48;5.43;;;;;;;;;;5013071;28;20048;-80
2024/03/20 02:08:15;;;;;;;10.50;5.10;;;;;;;;;;5020165;28;20064;-81
2024/03/20 02:10:41;;;;;;;10.85;4.78;;;;;;;;;;5018088;28;20531;-80
2024/03/20 02:13:07;;;;;;;11.73;5.30;;;;;;;;;;5016573;28;20095;-77
2024/03/20 02:15:32;;;;;;;10.93;4.95;;;;;;;;;;5023230;28;20450;-80
2024/03/20 02:17:58;;;;;;;10.77;5.07;;;;;;;;;;5036372;28;20148;-80
2024/03/20 02:20:24;;;;;;;9.18;4.75;;;;;;;;;;5012196;28;20060;-79
2024/03/20 02:22:49;;;;;;;10.02;5.00;;;;;;;;;;5025702;28;20048;-79
2024/03/20 02:25:14;;;;;;;9.93;5.18;;;;;;;;;;5021256;28;20490;-76
2024/03/20 02:27:40;;;;;;;10.30;5.10;;;;;;;;;;5010784;28;20132;-80
2024/03/20 02:30:07;;;;;;;10.85;4.85;;;;;;;;;;5029119;28;20049;-80
2024/03/20 02:32:32;;;;;;;11.02;5.10;;;;;;;;;;5014827;28;20059;-79
2024/03/20 02:34:58;;;;;;;10.50;5.10;;;;;;;;;;5008638;28;20423;-79
2024/03/20 02:37:23;;;;;;;6.60;4.63;;;;;;;;;;5028398;28;20784;-76
2024/03/20 02:39:49;;;;;;;8.38;4.80;;;;;;;;;;5020663;28;20057;-76
2024/03/20 02:42:14;;;;;;;7.10;4.70;;;;;;;;;;4991719;28;20426;-79
2024/03/20 02:44:39;;;;;;;6.32;4.03;;;;;;;;;;4991578;28;20057;-80
2024/03/20 02:47:05;;;;;;;7.78;4.32;;;;;;;;;;5025703;28;20673;-80
2024/03/20 02:49:30;;;;;;;7.72;4.45;;;;;;;;;;5033078;28;20100;-80
2024/03/20 02:51:56;;;;;;;6.93;4.53;;;;;;;;;;5011812;28;20045;-79
2024/03/20 02:54:21;;;;;;;8.52;5.03;;;;;;;;;;5020657;28;20517;-79
2024/03/20 02:56:47;;;;;;;7.32;4.85;;;;;;;;;;5022186;28;20095;-79
2024/03/20 02:59:12;;;;;;;8.07;5.03;;;;;;;;;;5023405;28;20065;-79
2024/03/20 03:01:38;;;;;;;7.22;5.22;;;;;;;;;;5017249;28;20057;-80
2024/03/20 03:04:03;;;;;;;8.35;4.68;;;;;;;;;;5030218;28;20056;-78
2024/03/20 03:06:29;;;;;;;13.25;5.00;;;;;;;;;;5014245;28;20109;-80
2024/03/20 03:08:54;;;;;;;8.88;4.72;;;;;;;;;;5007871;28;20064;-79
2024/03/20 03:11:20;;;;;;;8.63;4.78;;;;;;;;;;5024702;28;20053;-80
2024/03/20 03:13:46;;;;;;;10.75;4.85;;;;;;;;;;5017041;28;20060;-80
2024/03/20 03:16:12;;;;;;;8.98;4.80;;;;;;;;;;5013779;28;20067;-80
2024/03/20 03:18:38;;;;;;;8.73;4.95;;;;;;;;;;5015272;28;20049;-80
2024/03/20 03:21:03;;;;;;;9.05;5.43;;;;;;;;;;5031881;28;20102;-76
2024/03/20 03:23:29;;;;;;;12.23;6.00;;;;;;;;;;5008520;28;20751;-80
2024/03/20 03:25:54;;;;;;;7.65;5.00;;;;;;;;;;5009064;28;20053;-79
2024/03/20 03:28:19;;;;;;;7.55;4.72;;;;;;;;;;5024827;28;20049;-79
2024/03/20 03:30:45;;;;;;;10.48;5.28;;;;;;;;;;5015581;28;20049;-79
2024/03/20 03:33:11;;;;;;;9.77;5.68;;;;;;;;;;5022169;28;20085;-80
2024/03/20 03:35:37;;;;;;;7.75;5.15;;;;;;;;;;5031097;28;20041;-80
2024/03/20 03:38:02;;;;;;;7.90;4.55;;;;;;;;;;5021262;28;20041;-80
2024/03/20 03:40:28;;;;;;;10.23;5.07;;;;;;;;;;5027696;28;20045;-79
2024/03/20 03:42:53;;;;;;;9.93;5.63;;;;;;;;;;5014994;28;20048;-76
2024/03/20 03:45:19;;;;;;;6.57;4.90;;;;;;;;;;5007852;28;20136;-78
2024/03/20 03:47:44;;;;;;;9.23;5.20;;;;;;;;;;5019142;28;20057;-79
2024/03/20 03:50:09;;;;;;;9.50;5.80;;;;;;;;;;5007617;28;20057;-76
2024/03/20 03:52:35;;;;;;;8.23;5.22;;;;;;;;;;5022057;28;20080;-80
2024/03/20 03:55:00;;;;;;;10.95;5.00;;;;;;;;;;5003796;28;20056;-80
2024/03/20 03:57:26;;;;;;;8.10;5.00;;;;;;;;;;5022000;28;20050;-79
2024/03/20 03:59:51;;;;;;;8.98;5.00;;;;;;;;;;5034408;28;20045;-80
2024/03/20 04:02:17;;;;;;;11.75;5.47;;;;;;;;;;5026262;28;20493;-79
2024/03/20 04:04:43;;;;;;;9.38;5.20;;;;;;;;;;5011240;28;20166;-80
2024/03/20 04:07:08;;;;;;;13.35;6.18;;;;;;;;;;5041145;28;20119;-76
2024/03/20 04:09:33;;;;;;;9.05;5.50;;;;;;;;;;5026625;28;20081;-74
2024/03/20 04:11:59;;;;;;;9.10;5.50;;;;;;;;;;5030826;28;20053;-75
2024/03/20 04:14:24;;;;;;;9.73;4.97;;;;;;;;;;5026654;28;20044;-74
2024/03/20 04:16:50;;;;;;;10.18;5.50;;;;;;;;;;5032419;28;20095;-74
2024/03/20 04:19:15;;;;;;;9.52;5.65;;;;;;;;;;5020758;28;20045;-73
2024/03/20 04:21:41;;;;;;;10.07;5.60;;;;;;;;;;5004729;28;20053;-75
2024/03/20 04:24:06;;;;;;;11.48;5.35;;;;;;;;;;5005570;28;20041;-74
2024/03/20 04:26:32;;;;;;;8.57;5.63;;;;;;;;;;5027146;28;20124;-74
2024/03/20 04:28:57;;;;;;;12.15;6.15;;;;;;;;;;5011089;28;20052;-73
2024/03/20 04:31:23;;;;;;;11.02;6.07;;;;;;;;;;5016589;28;20045;-75
2024/03/20 04:33:48;;;;;;;11.23;5.70;;;;;;;;;;5009694;28;20112;-74
2024/03/20 04:36:14;;;;;;;9.65;5.68;;;;;;;;;;5008767;28;20049;-74
2024/03/20 04:38:39;;;;;;;13.13;6.05;;;;;;;;;;5026545;28;20056;-75
2024/03/20 04:41:05;;;;;;;8.43;5.82;;;;;;;;;;5028314;28;20057;-74
2024/03/20 04:43:31;;;;;;;8.50;5.43;;;;;;;;;;5005439;28;20072;-74
2024/03/20 04:45:56;;;;;;;9.45;5.70;;;;;;;;;;5014068;28;20045;-74
2024/03/20 04:48:22;;;;;;;9.95;5.25;;;;;;;;;;5019985;28;20092;-73
2024/03/20 04:50:47;;;;;;;9.43;5.45;;;;;;;;;;4994386;28;20045;-74
2024/03/20 04:53:13;;;;;;;10.23;5.60;;;;;;;;;;5017244;28;20044;-73
2024/03/20 04:55:38;;;;;;;11.00;5.88;;;;;;;;;;5014234;28;20047;-74
2024/03/20 04:58:04;;;;;;;11.18;5.78;;;;;;;;;;5019579;28;20045;-74
2024/03/20 05:00:29;;;;;;;11.07;5.80;;;;;;;;;;5032780;28;20045;-74
2024/03/20 05:02:54;;;;;;;10.85;6.13;;;;;;;;;;5024494;28;20053;-75
2024/03/20 05:05:20;;;;;;;9.48;5.75;;;;;;;;;;5005701;28;20056;-75
2024/03/20 05:07:46;;;;;;;11.20;6.10;;;;;;;;;;5028378;28;20053;-74
2024/03/20 05:10:11;;;;;;;9.50;5.80;;;;;;;;;;5026286;28;20045;-74
2024/03/20 05:12:37;;;;;;;11.10;6.53;;;;;;;;;;5028952;28;20109;-75
2024/03/20 05:15:03;;;;;;;12.40;6.13;;;;;;;;;;5022651;28;20077;-74
2024/03/20 05:17:28;;;;;;;11.73;5.82;;;;;;;;;;5016694;28;20099;-80
2024/03/20 05:19:54;;;;;;;10.35;5.60;;;;;;;;;;5025998;28;20053;-79
2024/03/20 05:22:19;;;;;;;11.93;5.70;;;;;;;;;;5021159;28;20482;-80
2024/03/20 05:24:49;;;;;;;10.60;5.47;;;;;;;;;;5016103;28;20110;-79
2024/03/20 05:27:14;;;;;;;15.05;6.43;;;;;;;;;;5010603;28;20064;-81
2024/03/20 05:29:40;;;;;;;10.95;6.10;;;;;;;;;;5023416;28;20064;-79
2024/03/20 05:32:05;;;;;;;15.55;6.30;;;;;;;;;;5015607;28;20053;-80
2024/03/20 05:34:31;;;;;;;12.38;5.78;;;;;;;;;;5018257;28;20053;-80
2024/03/20 05:36:56;;;;;;;10.35;6.47;;;;;;;;;;5024411;28;20080;-80
2024/03/20 05:39:23;;;;;;;12.38;5.93;;;;;;;;;;5029006;28;20071;-80
2024/03/20 05:41:48;;;;;;;10.20;5.95;;;;;;;;;;5004625;28;20064;-80
2024/03/20 05:44:17;;;;;;;10.40;6.00;;;;;;;;;;5013557;28;20048;-80
2024/03/20 05:46:49;;;;;;;10.48;6.10;;;;;;;;;;5022092;28;20083;-80
2024/03/20 05:49:15;;;;;;;9.85;6.35;;;;;;;;;;5025516;28;20046;-79
2024/03/20 05:51:41;;;;;;;12.32;6.18;;;;;;;;;;5007933;28;20055;-78
2024/03/20 05:54:06;;;;;;;9.18;5.88;;;;;;;;;;5021174;28;20041;-81
2024/03/20 05:56:32;;;;;;;9.98;6.47;;;;;;;;;;5024076;28;20087;-80
2024/03/20 05:58:57;;;;;;;8.77;6.07;;;;;;;;;;5003699;28;20095;-79
2024/03/20 06:01:23;;;;;;;18.15;6.32;;;;;;;;;;5011960;28;20057;-80
2024/03/20 06:03:48;;;;;;;14.18;6.32;;;;;;;;;;4997768;28;20066;-81
2024/03/20 06:06:14;;;;;;;11.73;6.22;;;;;;;;;;5019517;28;20064;-79
2024/03/20 06:08:39;;;;;;;12.52;6.80;;;;;;;;;;5021282;28;20056;-80
2024/03/20 06:11:23;;;;;;;8.35;5.68;;;;;;;;;;5019361;28;20045;-79
2024/03/20 06:13:49;;;;;;;9.07;6.00;;;;;;;;;;5012723;28;20550;-80
2024/03/20 06:16:14;;;;;;;10.77;6.38;;;;;;;;;;5016330;28;20042;-80
2024/03/20 06:18:40;;;;;;;9.23;5.88;;;;;;;;;;5022222;28;20131;-80
2024/03/20 06:21:06;;;;;;;10.57;6.18;;;;;;;;;;5032501;28;20068;-77
2024/03/20 06:23:31;;;;;;;12.35;6.70;;;;;;;;;;5032866;28;20080;-80
2024/03/20 06:25:57;;;;;;;10.68;6.40;;;;;;;;;;5024814;28;20492;-80
2024/03/20 06:28:22;;;;;;;12.38;6.63;;;;;;;;;;5012683;28;20053;-80
2024/03/20 06:30:48;;;;;;;14.35;7.00;;;;;;;;;;5030353;28;20041;-80
2024/03/20 06:33:14;;;;;;;12.75;6.53;;;;;;;;;;5007292;28;20069;-79
2024/03/20 06:35:39;;;;;;;9.68;6.47;;;;;;;;;;5017711;28;20056;-81
2024/03/20 06:38:07;;;;;;;13.32;6.63;;;;;;;;;;5025381;28;20909;-75
2024/03/20 06:40:32;;;;;;;9.63;6.80;;;;;;;;;;5010128;28;20056;-74
2024/03/20 06:42:59;;;;;;;13.30;7.30;;;;;;;;;;5003419;28;20085;-74
2024/03/20 06:45:31;;;;;;;11.93;8.00;;;;;;;;;;5024433;28;20045;-75
2024/03/20 06:47:56;;;;;;;12.95;8.00;;;;;;;;;;5026562;28;20041;-74
2024/03/20 06:50:23;;;;;;;19.38;8.57;;;;;;;;;;5020888;28;20413;-74
2024/03/20 06:52:48;;;;;;;13.35;7.38;;;;;;;;;;5009149;28;20049;-75
2024/03/20 06:55:14;;;;;;;13.75;8.05;;;;;;;;;;5013491;28;20728;-74
2024/03/20 06:57:41;;;;;;;15.23;8.20;;;;;;;;;;5011052;28;20063;-75
2024/03/20 07:00:14;;;;;;;12.25;7.60;;;;;;;;;;5036917;28;20049;-74
2024/03/20 07:02:40;;;;;;;14.73;7.13;;;;;;;;;;5025977;28;20057;-74
2024/03/20 07:05:05;;;;;;;15.10;7.65;;;;;;;;;;5026407;28;20160;-74
2024/03/20 07:07:31;;;;;;;13.93;7.30;;;;;;;;;;5011846;28;20061;-74
2024/03/20 07:09:57;;;;;;;15.07;7.05;;;;;;;;;;5024338;28;20048;-74
2024/03/20 07:12:22;;;;;;;11.52;7.40;;;;;;;;;;5026586;28;20061;-74
2024/03/20 07:14:47;;;;;;;11.95;7.43;;;;;;;;;;5030459;28;20065;-74
2024/03/20 07:17:13;;;;;;;14.73;8.80;;;;;;;;;;5022316;28;20056;-74
2024/03/20 07:19:38;;;;;;;10.75;7.50;;;;;;;;;;5039626;28;20061;-74
2024/03/20 07:22:04;;;;;;;13.88;7.32;;;;;;;;;;5011021;28;20166;-74
2024/03/20 07:24:29;;;;;;;13.23;7.32;;;;;;;;;;5014896;28;20053;-75
2024/03/20 07:26:56;;;;;;;11.75;7.13;;;;;;;;;;5024306;28;20059;-75
2024/03/20 07:29:21;;;;;;;14.02;7.18;;;;;;;;;;5020237;28;20069;-74
2024/03/20 07:31:47;;;;;;;15.18;8.00;;;;;;;;;;5017485;28;20521;-74
2024/03/20 07:34:12;;;;;;;15.85;7.55;;;;;;;;;;5017846;28;20064;-73
2024/03/20 07:36:38;;;;;;;12.63;7.00;;;;;;;;;;5007007;28;20057;-76
2024/03/20 07:39:04;;;;;;;14.52;8.18;;;;;;;;;;5005521;28;20060;-75
2024/03/20 07:41:30;;;;;;;14.18;7.38;;;;;;;;;;5006292;28;20060;-75
2024/03/20 07:43:56;;;;;;;12.68;6.93;;;;;;;;;;5025262;28;20371;-75
2024/03/20 07:46:21;;;;;;;16.67;7.35;;;;;;;;;;5025807;28;20067;-75
2024/03/20 07:48:47;;;;;;;11.00;6.57;;;;;;;;;;5018979;28;20159;-75
2024/03/20 07:51:18;;;;;;;11.52;6.82;;;;;;;;;;5026000;28;20052;-74
2024/03/20 07:53:44;;;;;;;14.70;7.18;;;;;;;;;;5003025;28;20060;-75
2024/03/20 07:56:10;;;;;;;15.35;8.25;;;;;;;;;;5024190;28;20053;-74
2024/03/20 07:58:36;;;;;;;16.35;8.70;;;;;;;;;;5030862;28;20128;-75
2024/03/20 08:01:02;;;;;;;15.70;8.82;;;;;;;;;;5028932;28;20387;-75
2024/03/20 08:03:27;;;;;;;14.38;8.48;;;;;;;;;;5021824;28;20053;-74
2024/03/20 08:05:54;;;;;;;13.88;8.55;;;;;;;;;;5004225;28;20049;-74
2024/03/20 08:08:19;;;;;;;14.55;7.50;;;;;;;;;;5020003;28;20548;-74
2024/03/20 08:10:46;;;;;;;18.70;8.00;;;;;;;;;;5030027;28;20068;-74
2024/03/20 08:13:12;;;;;;;16.05;8.43;;;;;;;;;;5021634;28;20056;-76
2024/03/20 08:15:39;;;;;;;17.38;8.25;;;;;;;;;;5027868;28;20064;-77
2024/03/20 08:18:05;;;;;;;13.98;7.75;;;;;;;;;;5015620;28;20497;-76
2024/03/20 08:20:30;;;;;;;18.60;8.57;;;;;;;;;;5020181;28;20778;-77
2024/03/20 08:22:56;;;;;;;16.83;9.18;;;;;;;;;;5018793;28;20068;-76
2024/03/20 08:25:21;;;;;;;12.93;8.88;;;;;;;;;;5025242;28;20065;-76
2024/03/20 08:27:47;;;;;;;15.60;8.25;;;;;;;;;;5032190;28;20052;-77
2024/03/20 08:30:13;;;;;;;17.92;8.63;;;;;;;;;;5025947;28;20456;-76
2024/03/20 08:32:38;;;;;;;16.50;8.85;;;;;;;;;;5023578;28;20068;-76
2024/03/20 08:35:07;;;;;;;18.02;8.77;;;;;;;;;;5005710;28;20049;-77
2024/03/20 08:37:33;;;;;;;19.67;10.18;;;;;;;;;;5016900;28;20056;-76
2024/03/20 08:40:01;;;;;;;19.92;9.73;;;;;;;;;;5028575;28;20052;-77
2024/03/20 08:42:27;;;;;;;18.55;10.95;;;;;;;;;;5016837;28;20095;-76
2024/03/20 08:44:52;;;;;;;25.23;11.18;;;;;;;;;;5025063;28;20127;-74
2024/03/20 08:47:17;;;;;;;18.05;11.75;;;;;;;;;;5024166;28;20065;-75
2024/03/20 08:49:44;;;;;;;23.63;11.82;;;;;;;;;;5019478;28;20044;-76
2024/03/20 08:52:11;;;;;;;14.27;9.90;;;;;;;;;;5029283;28;20114;-75
2024/03/20 08:54:43;;;;;;;16.55;11.35;;;;;;;;;;5015019;28;20063;-78
2024/03/20 08:57:09;;;;;;;19.95;11.50;;;;;;;;;;5021348;28;20735;-76
2024/03/20 08:59:35;;;;;;;23.85;11.95;;;;;;;;;;5031180;28;20548;-81
2024/03/20 09:02:02;;;;;;;22.42;12.90;;;;;;;;;;5017277;28;20057;-80
2024/03/20 09:04:28;;;;;;;19.85;12.48;;;;;;;;;;5013462;28;20048;-79
2024/03/20 09:06:55;;;;;;;19.40;12.32;;;;;;;;;;5019328;28;20514;-80
2024/03/20 09:09:21;;;;;;;21.77;12.40;;;;;;;;;;5029545;28;20049;-81
2024/03/20 09:11:47;;;;;;;25.10;12.93;;;;;;;;;;5012881;28;20132;-81
2024/03/20 09:14:13;;;;;;;25.13;14.27;;;;;;;;;;5016379;28;20222;-80
2024/03/20 09:16:38;;;;;;;20.95;13.45;;;;;;;;;;5033308;28;20052;-79
2024/03/20 09:19:04;;;;;;;21.80;14.05;;;;;;;;;;5011838;28;20136;-80
2024/03/20 09:21:33;;;;;;;24.20;14.68;;;;;;;;;;5025010;28;20158;-80
2024/03/20 09:23:58;;;;;;;23.83;13.52;;;;;;;;;;5008224;28;20116;-80
2024/03/20 09:26:24;;;;;;;22.60;14.05;;;;;;;;;;5031886;28;20487;-80
2024/03/20 09:28:49;;;;;;;26.08;14.48;;;;;;;;;;5031210;28;20060;-80
2024/03/20 09:31:15;;;;;;;23.05;15.05;;;;;;;;;;5009984;28;20049;-79
2024/03/20 09:33:40;;;;;;;24.38;14.63;;;;;;;;;;5007698;28;20060;-80
2024/03/20 09:36:06;;;;;;;20.25;13.55;;;;;;;;;;5024905;28;20057;-81
2024/03/20 09:38:32;;;;;;;25.58;15.65;;;;;;;;;;5026589;28;20615;-81
2024/03/20 09:40:57;;;;;;;28.95;16.77;;;;;;;;;;5030767;28;20048;-79
2024/03/20 09:43:23;;;;;;;23.75;15.70;;;;;;;;;;5029516;28;20057;-81
2024/03/20 09:45:50;;;;;;;24.65;16.75;;;;;;;;;;5027592;28;20603;-82
2024/03/20 09:48:16;;;;;;;24.27;16.20;;;;;;;;;;5008238;28;20060;-82
2024/03/20 09:50:41;;;;;;;27.50;18.02;;;;;;;;;;5026052;28;20067;-81
2024/03/20 09:53:08;;;;;;;26.35;17.75;;;;;;;;;;5029732;28;20691;-80
2024/03/20 09:55:34;;;;;;;23.33;16.27;;;;;;;;;;5026958;28;20044;-80
2024/03/20 09:58:00;;;;;;;28.13;18.52;;;;;;;;;;5030178;28;20052;-80
2024/03/20 10:00:27;;;;;;;26.70;17.77;;;;;;;;;;5031133;28;20067;-80
2024/03/20 10:02:54;;;;;;;22.35;14.45;;;;;;;;;;5027370;28;20059;-79
2024/03/20 10:05:19;;;;;;;20.67;16.42;;;;;;;;;;5021186;28;20052;-80
2024/03/20 10:07:46;;;;;;;20.08;13.73;;;;;;;;;;5028886;28;20054;-75
2024/03/20 10:10:13;;;;;;;25.08;16.48;;;;;;;;;;5023862;28;20060;-76
2024/03/20 10:12:41;;;;;;;23.88;16.50;;;;;;;;;;5024900;28;20050;-76
2024/03/20 10:15:08;;;;;;;25.45;17.63;;;;;;;;;;5010282;28;20053;-77
2024/03/20 10:17:34;;;;;;;27.13;17.75;;;;;;;;;;5018288;28;20084;-76
2024/03/20 10:20:16;;;;;;;28.75;18.33;;;;;;;;;;5015207;28;20418;-77
2024/03/20 10:22:42;;;;;;;23.10;16.92;;;;;;;;;;5000722;28;20062;-75
2024/03/20 10:25:08;;;;;;;20.17;13.63;;;;;;;;;;5028919;28;20053;-75
2024/03/20 10:27:35;;;;;;;25.45;18.00;;;;;;;;;;5020128;28;20076;-76
2024/03/20 10:30:01;;;;;;;26.30;17.75;;;;;;;;;;5007364;28;20064;-76
2024/03/20 10:32:26;;;;;;;25.77;17.73;;;;;;;;;;5029827;28;20135;-75
2024/03/20 10:34:54;;;;;;;28.50;18.55;;;;;;;;;;5020426;28;20049;-74
2024/03/20 10:37:20;;;;;;;26.70;18.48;;;;;;;;;;5015865;28;20052;-75
2024/03/20 10:39:47;;;;;;;20.60;13.68;;;;;;;;;;5006744;28;20049;-77
2024/03/20 10:42:13;;;;;;;24.25;13.60;;;;;;;;;;5006377;28;20049;-76
2024/03/20 10:44:40;;;;;;;20.50;15.48;;;;;;;;;;5019715;28;20053;-76
2024/03/20 10:47:05;;;;;;;21.92;14.55;;;;;;;;;;5037773;28;20469;-76
2024/03/20 10:49:31;;;;;;;20.70;14.90;;;;;;;;;;5038438;28;20048;-77
2024/03/20 10:51:56;;;;;;;22.63;15.30;;;;;;;;;;5015386;28;20143;-77
2024/03/20 10:54:22;;;;;;;21.10;14.43;;;;;;;;;;5023294;28;20546;-76
2024/03/20 10:56:48;;;;;;;21.50;14.95;;;;;;;;;;5024116;28;20496;-76
2024/03/20 10:59:23;;;;;;;23.00;15.23;;;;;;;;;;5016063;28;20076;-74
2024/03/20 11:02:19;;;;;;;17.38;12.05;;;;;;;;;;5027621;28;20063;-76
2024/03/20 11:04:44;;;;;;;23.67;16.00;;;;;;;;;;5015084;28;20060;-77
2024/03/20 11:07:28;;;;;;;17.98;12.68;;;;;;;;;;5039353;28;20481;-77
2024/03/20 11:09:57;;;;;;;22.98;14.65;;;;;;;;;;5008094;28;20061;-78
2024/03/20 11:12:29;;;;;;;16.55;12.18;;;;;;;;;;5028057;28;20045;-78
2024/03/20 11:15:04;;;;;;;18.05;12.80;;;;;;;;;;5015660;28;20073;-77
2024/03/20 11:17:36;;;;;;;19.52;13.07;;;;;;;;;;5020199;28;20417;-77
2024/03/20 11:20:04;;;;;;;22.17;14.57;;;;;;;;;;5023185;28;20049;-77
2024/03/20 11:22:31;;;;;;;20.93;14.87;;;;;;;;;;5031186;28;20052;-78
2024/03/20 11:24:56;;;;;;;19.50;11.67;;;;;;;;;;5028402;28;20058;-76
2024/03/20 11:27:25;;;;;;;20.52;13.02;;;;;;;;;;5033672;28;20048;-77
2024/03/20 11:29:50;;;;;;;;;;;;;;;;;;5034974;28;20045;-76
2024/03/20 11:32:19;;;;;;;14.85;9.77;;;;;;;;;;5027680;28;19975;-77
2024/03/20 11:34:44;;;;;;;16.90;11.18;;;;;;;;;;5029182;28;20057;-76
2024/03/20 11:37:15;;;;;;;18.73;11.70;;;;;;;;;;5012578;28;20049;-75
2024/03/20 11:39:43;;;;;;;17.73;9.82;;;;;;;;;;5015789;28;20053;-77
2024/03/20 11:42:10;;;;;;;16.95;10.38;;;;;;;;;;5027294;28;20052;-77
2024/03/20 11:44:35;;;;;;;16.83;11.77;;;;;;;;;;5009591;28;20556;-76
2024/03/20 11:47:01;;;;;;;17.45;11.02;;;;;;;;;;5025782;28;20299;-76
2024/03/20 11:49:27;;;;;;;16.90;11.52;;;;;;;;;;5040244;28;20163;-76
2024/03/20 11:51:52;;;;;;;16.75;12.05;;;;;;;;;;5013257;28;20057;-76
2024/03/20 11:54:19;;;;;;;21.17;12.82;;;;;;;;;;5018003;28;20111;-75
2024/03/20 11:56:46;;;;;;;16.65;12.38;;;;;;;;;;5020067;28;20474;-77
2024/03/20 11:59:12;;;;;;;16.65;12.45;;;;;;;;;;5012370;28;20057;-76
2024/03/20 12:01:37;;;;;;;20.73;11.85;;;;;;;;;;5003211;28;20625;-78
2024/03/20 12:04:03;;;;;;;16.05;11.48;;;;;;;;;;5026588;28;20861;-76
2024/03/20 12:06:33;;;;;;;17.42;11.48;;;;;;;;;;5014788;28;20095;-76
2024/03/20 12:09:12;;;;;;;16.98;11.63;;;;;;;;;;5000688;28;20056;-77
2024/03/20 12:11:39;;;;;;;16.75;11.63;;;;;;;;;;5029087;28;20148;-77
2024/03/20 12:14:04;;;;;;;17.10;12.32;;;;;;;;;;5032621;28;20051;-77
2024/03/20 12:16:30;;;;;;;25.08;11.02;;;;;;;;;;5030175;28;20056;-76
2024/03/20 12:18:56;;;;;;;17.88;10.00;;;;;;;;;;5008380;28;20056;-77
2024/03/20 12:21:22;;;;;;;12.43;9.38;;;;;;;;;;5018899;28;20041;-77
2024/03/20 12:23:49;;;;;;;17.65;10.18;;;;;;;;;;5006090;28;20053;-77
2024/03/20 12:26:19;;;;;;;21.65;11.15;;;;;;;;;;5016948;28;20064;-76
2024/03/20 12:28:46;;;;;;;15.27;10.25;;;;;;;;;;5030700;28;20052;-79
2024/03/20 12:31:13;;;;;;;18.42;11.68;;;;;;;;;;5009864;28;20053;-79
2024/03/20 12:33:40;;;;;;;20.60;11.30;;;;;;;;;;5029366;28;20111;-77
2024/03/20 12:36:07;;;;;;;18.35;11.00;;;;;;;;;;5014804;28;20072;-83
2024/03/20 12:38:33;;;;;;;16.05;11.45;;;;;;;;;;5022368;28;20053;-84
2024/03/20 12:40:59;;;;;;;18.15;11.18;;;;;;;;;;5006054;28;20053;-83
2024/03/20 12:43:24;;;;;;;17.15;11.80;;;;;;;;;;5023547;28;20793;-82
2024/03/20 12:45:50;;;;;;;18.42;12.07;;;;;;;;;;5035292;28;20055;-82
2024/03/20 12:48:15;;;;;;;15.70;11.30;;;;;;;;;;5023814;28;20494;-83
2024/03/20 12:50:42;;;;;;;19.25;10.95;;;;;;;;;;5005408;28;20058;-79
2024/03/20 12:53:17;;;;;;;16.15;10.50;;;;;;;;;;5034437;28;20051;-79
2024/03/20 12:55:43;;;;;;;17.75;10.95;;;;;;;;;;5026048;28;20045;-80
2024/03/20 12:58:13;;;;;;;14.35;9.98;;;;;;;;;;5027421;28;20677;-78
2024/03/20 13:00:39;;;;;;;13.10;9.23;;;;;;;;;;5019698;28;20060;-80
2024/03/20 13:03:08;;;;;;;15.55;9.23;;;;;;;;;;5016047;28;20048;-80
2024/03/20 13:05:35;;;;;;;17.00;10.02;;;;;;;;;;5007382;28;20057;-80
2024/03/20 13:08:01;;;;;;;15.63;10.10;;;;;;;;;;5027617;28;20048;-79
2024/03/20 13:10:26;;;;;;;14.90;11.38;;;;;;;;;;5027499;28;20500;-80
2024/03/20 13:12:55;;;;;;;16.80;11.10;;;;;;;;;;5012065;28;20053;-81
2024/03/20 13:15:22;;;;;;;14.43;11.63;;;;;;;;;;5016872;28;20053;-79
2024/03/20 13:17:49;;;;;;;20.38;10.65;;;;;;;;;;5015918;28;20106;-81
2024/03/20 13:20:16;;;;;;;19.55;11.32;;;;;;;;;;5033837;28;20049;-80
2024/03/20 13:22:42;;;;;;;17.95;11.38;;;;;;;;;;5011337;28;20061;-80
2024/03/20 13:25:14;;;;;;;13.20;9.50;;;;;;;;;;5024059;28;20061;-82
2024/03/20 13:27:40;;;;;;;13.95;9.90;;;;;;;;;;5029879;28;20052;-80
2024/03/20 13:30:06;;;;;;;14.05;9.63;;;;;;;;;;5013596;28;20061;-79
2024/03/20 13:32:34;;;;;;;15.45;10.30;;;;;;;;;;5030601;28;20049;-82
2024/03/20 13:35:13;;;;;;;12.98;9.10;;;;;;;;;;5026466;28;20159;-79
2024/03/20 13:37:39;;;;;;;11.52;8.13;;;;;;;;;;5033383;28;20057;-76
2024/03/20 13:40:30;;;;;;;12.63;9.57;;;;;;;;;;5024074;28;20060;-77
2024/03/20 13:42:59;;;;;;;14.25;8.27;;;;;;;;;;5022824;28;20049;-77
2024/03/20 13:45:25;;;;;;;12.68;9.35;;;;;;;;;;5016404;28;20750;-77
2024/03/20 13:47:51;;;;;;;11.75;9.05;;;;;;;;;;5016710;28;21043;-74
2024/03/20 13:50:16;;;;;;;12.27;9.52;;;;;;;;;;5011889;28;20051;-76
2024/03/20 13:52:42;;;;;;;16.63;10.25;;;;;;;;;;5027057;28;20057;-75
2024/03/20 13:55:11;;;;;;;14.10;10.43;;;;;;;;;;4993618;28;20057;-77
2024/03/20 13:57:36;;;;;;;15.75;9.90;;;;;;;;;;5009763;28;20046;-77
2024/03/20 14:00:07;;;;;;;14.85;11.07;;;;;;;;;;5006755;28;20056;-76
2024/03/20 14:02:32;;;;;;;12.98;10.57;;;;;;;;;;5012713;28;20057;-76
2024/03/20 14:04:58;;;;;;;15.65;12.05;;;;;;;;;;5003522;28;20069;-75
2024/03/20 14:07:23;;;;;;;18.25;12.43;;;;;;;;;;5010086;28;20077;-76
2024/03/20 14:09:49;;;;;;;18.35;10.40;;;;;;;;;;5008562;28;20364;-77
2024/03/20 14:12:15;;;;;;;18.83;11.43;;;;;;;;;;5029714;28;20041;-76
2024/03/20 14:14:42;;;;;;;15.07;10.65;;;;;;;;;;5017431;28;20401;-76
2024/03/20 14:17:14;;;;;;;14.63;11.05;;;;;;;;;;4988807;28;20048;-75
2024/03/20 14:19:40;;;;;;;16.05;11.70;;;;;;;;;;5011490;28;20052;-74
2024/03/20 14:22:09;;;;;;;14.20;10.82;;;;;;;;;;5031474;28;20061;-75
2024/03/20 14:24:35;;;;;;;14.48;11.25;;;;;;;;;;5023291;28;20056;-74